Anderson, Missouri
Current Conditions -  °F | °C
As of 1:35 PM on Thursday 30 Oct 2014 (Local Time) from KGMJ Reporting Station
Clear Clear  
Wind Chill: 70°   Ceiling: Unl
Heat Index: 70°   Visibility: 10mi
Dew Point: 46°   Wind: 14mph
Humidity: 43%   Direction: 250°WSW
Pressure: 30.07"   Gusts: 20mph
Location:  36.65°N, 94.44°W
Report Text: KGMJ 301835Z AUTO 25012G17KT 10SM CLR 21/08 A3007 RMK AO2
Loading
Personal Weather Stations






























Interactive Weather Map New forecast layout! Learn more

10-Day Weather Forecast

Advertisements
Track Severe Weather on mobile